Time,TemperatureF,DewpointF,PressureIn,WindDirection,WindDirectionDegrees,WindSpeedMPH,WindSpeedGustMPH,Humidity,HourlyPrecipIn,Conditions,Clouds,dailyrainin,SolarRadiationWatts/m^2,SoftwareType,DateUTC
2013-02-28 00:01:00,56.0,51.0,-100.00,WNW,290,5.0,-999.0,82,0.00,,,-99.99,0.000000,,2013-02-28 05:01:00,
2013-02-28 00:11:00,56.0,51.0,-100.00,WNW,294,4.0,-999.0,82,0.00,,,-99.99,0.000000,,2013-02-28 05:11:00,
2013-02-28 00:22:00,56.0,51.0,-100.00,WNW,294,4.0,-999.0,82,0.00,,,-99.99,0.000000,,2013-02-28 05:22:00,
2013-02-28 00:32:00,56.0,51.0,-100.00,WNW,290,4.0,-999.0,83,0.00,,,-99.99,0.000000,,2013-02-28 05:32:00,
2013-02-28 00:42:00,56.0,51.0,-100.00,WNW,292,4.0,-999.0,83,0.00,,,-99.99,0.000000,,2013-02-28 05:42:00,
2013-02-28 00:52:00,56.0,51.0,-100.00,WNW,292,4.0,-999.0,83,0.00,,,-99.99,0.000000,,2013-02-28 05:52:00,
2013-02-28 01:01:00,56.0,51.0,-100.00,WNW,298,5.0,-999.0,83,0.00,,,-99.99,0.000000,,2013-02-28 06:01:00,
2013-02-28 01:11:00,55.0,51.0,-100.00,WNW,295,4.0,-999.0,84,0.00,,,-99.99,0.000000,,2013-02-28 06:11:00,
2013-02-28 01:22:00,55.0,51.0,-100.00,WNW,295,4.0,-999.0,84,0.00,,,-99.99,0.000000,,2013-02-28 06:22:00,
2013-02-28 01:32:00,56.0,51.0,-100.00,WNW,284,4.0,-999.0,84,0.00,,,-99.99,0.000000,,2013-02-28 06:32:00,
2013-02-28 01:42:00,56.0,51.0,-100.00,WNW,286,4.0,-999.0,83,0.00,,,-99.99,0.000000,,2013-02-28 06:42:00,
2013-02-28 01:52:00,56.0,51.0,-100.00,WNW,286,4.0,-999.0,83,0.00,,,-99.99,0.000000,,2013-02-28 06:52:00,
2013-02-28 02:01:00,55.0,50.0,-100.00,WNW,287,5.0,-999.0,83,0.00,,,-99.99,0.000000,,2013-02-28 07:01:00,
2013-02-28 02:11:00,55.0,50.0,-100.00,WNW,294,4.0,-999.0,82,0.00,,,-99.99,0.000000,,2013-02-28 07:11:00,
2013-02-28 02:21:00,55.0,50.0,-100.00,WNW,294,4.0,-999.0,82,0.00,,,-99.99,0.000000,,2013-02-28 07:21:00,
2013-02-28 02:32:00,55.0,50.0,-100.00,WNW,303,4.0,-999.0,83,0.00,,,-99.99,0.000000,,2013-02-28 07:32:00,
2013-02-28 02:42:00,55.0,50.0,-100.00,WNW,295,4.0,-999.0,84,0.00,,,-99.99,0.000000,,2013-02-28 07:42:00,
2013-02-28 02:52:00,55.0,50.0,-100.00,WNW,295,4.0,-999.0,84,0.00,,,-99.99,0.000000,,2013-02-28 07:52:00,
2013-02-28 03:01:00,54.0,50.0,-100.00,WNW,295,3.0,-999.0,85,0.00,,,-99.99,0.000000,,2013-02-28 08:01:00,
2013-02-28 03:11:00,54.0,50.0,-100.00,West,281,2.0,-999.0,86,0.00,,,-99.99,0.000000,,2013-02-28 08:11:00,
2013-02-28 03:22:00,54.0,50.0,-100.00,West,281,2.0,-999.0,86,0.00,,,-99.99,0.000000,,2013-02-28 08:22:00,
2013-02-28 03:32:00,54.0,50.0,-100.00,West,270,2.0,-999.0,86,0.00,,,-99.99,0.000000,,2013-02-28 08:32:00,
2013-02-28 03:42:00,54.0,50.0,-100.00,WNW,294,2.0,-999.0,87,0.00,,,-99.99,0.000000,,2013-02-28 08:42:00,
2013-02-28 03:53:00,54.0,50.0,-100.00,WNW,294,2.0,-999.0,87,0.00,,,-99.99,0.000000,,2013-02-28 08:53:00,
2013-02-28 04:03:00,54.0,50.0,-100.00,WNW,297,2.0,-999.0,88,0.00,,,-99.99,0.000000,,2013-02-28 09:03:00,
2013-02-28 04:12:00,54.0,50.0,-100.00,WNW,292,3.0,-999.0,88,0.00,,,-99.99,0.000000,,2013-02-28 09:12:00,
2013-02-28 04:22:00,54.0,50.0,-100.00,WNW,292,3.0,-999.0,88,0.00,,,-99.99,0.000000,,2013-02-28 09:22:00,
2013-02-28 04:32:00,54.0,50.0,-100.00,WNW,282,3.0,-999.0,88,0.00,,,-99.99,0.000000,,2013-02-28 09:32:00,
2013-02-28 04:42:00,54.0,50.0,-100.00,West,280,2.0,-999.0,88,0.00,,,-99.99,0.000000,,2013-02-28 09:42:00,
2013-02-28 04:52:00,54.0,50.0,-100.00,West,280,2.0,-999.0,88,0.00,,,-99.99,0.000000,,2013-02-28 09:52:00,
2013-02-28 05:02:00,53.0,50.0,-100.00,West,271,1.0,-999.0,89,0.00,,,-99.99,0.000000,,2013-02-28 10:02:00,
2013-02-28 05:12:00,51.0,49.0,-100.00,NNW,337,1.0,-999.0,90,0.00,,,-99.99,0.000000,,2013-02-28 10:12:00,
2013-02-28 05:22:00,51.0,49.0,-100.00,NNW,337,1.0,-999.0,90,0.00,,,-99.99,0.000000,,2013-02-28 10:22:00,
2013-02-28 05:32:00,51.0,49.0,-100.00,WNW,282,1.0,-999.0,92,0.00,,,-99.99,0.000000,,2013-02-28 10:32:00,
2013-02-28 05:42:00,52.0,50.0,-100.00,West,277,2.0,-999.0,93,0.00,,,-99.99,0.000000,,2013-02-28 10:42:00,
2013-02-28 05:52:00,52.0,50.0,-100.00,West,277,2.0,-999.0,93,0.00,,,-99.99,0.000000,,2013-02-28 10:52:00,
2013-02-28 06:01:00,52.0,50.0,-100.00,NW,313,2.0,-999.0,93,0.00,,,-99.99,0.000000,,2013-02-28 11:01:00,
2013-02-28 06:11:00,52.0,50.0,-100.00,WNW,288,1.0,-999.0,93,0.00,,,-99.99,0.000000,,2013-02-28 11:11:00,
2013-02-28 06:22:00,52.0,50.0,-100.00,WNW,288,1.0,-999.0,93,0.00,,,-99.99,0.000000,,2013-02-28 11:22:00,
2013-02-28 06:32:00,52.0,50.0,-100.00,NW,324,1.0,-999.0,93,0.00,,,-99.99,0.000000,,2013-02-28 11:32:00,
2013-02-28 06:42:00,51.0,50.0,-100.00,NNW,340,2.0,-999.0,93,0.00,,,-99.99,0.000000,,2013-02-28 11:42:00,
2013-02-28 06:52:00,51.0,50.0,-100.00,NNW,340,2.0,-999.0,93,0.00,,,-99.99,0.000000,,2013-02-28 11:52:00,
2013-02-28 07:02:00,51.0,49.0,-100.00,North,351,2.0,-999.0,93,0.00,,,-99.99,0.400000,,2013-02-28 12:02:00,
2013-02-28 07:12:00,51.0,50.0,-100.00,NW,324,2.0,-999.0,94,0.00,,,-99.99,2.900000,,2013-02-28 12:12:00,
2013-02-28 07:22:00,51.0,50.0,-100.00,NW,324,2.0,-999.0,94,0.00,,,-99.99,2.900000,,2013-02-28 12:22:00,
2013-02-28 07:32:00,52.0,50.0,-100.00,NW,324,2.0,-999.0,94,0.00,,,-99.99,10.600000,,2013-02-28 12:32:00,
2013-02-28 07:42:00,52.0,50.0,-100.00,NW,324,2.0,-999.0,94,0.00,,,-99.99,10.600000,,2013-02-28 12:42:00,
2013-02-28 07:52:00,52.0,51.0,-100.00,NW,320,2.0,-999.0,93,0.00,,,-99.99,29.100000,,2013-02-28 12:52:00,
2013-02-28 08:02:00,53.0,51.0,-100.00,NW,314,3.0,-999.0,93,0.00,,,-99.99,44.500000,,2013-02-28 13:02:00,
2013-02-28 08:12:00,54.0,52.0,-100.00,NW,318,2.0,-999.0,91,0.00,,,-99.99,124.800003,,2013-02-28 13:12:00,
2013-02-28 08:22:00,54.0,52.0,-100.00,NW,318,2.0,-999.0,91,0.00,,,-99.99,124.800003,,2013-02-28 13:22:00,
2013-02-28 08:32:00,55.0,52.0,-100.00,NW,317,3.0,-999.0,88,0.00,,,-99.99,206.000000,,2013-02-28 13:32:00,
2013-02-28 08:42:00,57.0,52.0,-100.00,NW,314,3.0,-999.0,84,0.00,,,-99.99,269.200012,,2013-02-28 13:42:00,
2013-02-28 08:52:00,57.0,52.0,-100.00,NW,314,3.0,-999.0,84,0.00,,,-99.99,269.200012,,2013-02-28 13:52:00,
2013-02-28 09:02:00,58.0,52.0,-100.00,NW,314,4.0,-999.0,80,0.00,,,-99.99,326.899994,,2013-02-28 14:02:00,
2013-02-28 09:11:00,59.0,53.0,-100.00,NW,325,4.0,-999.0,78,0.00,,,-99.99,309.100006,,2013-02-28 14:11:00,
2013-02-28 09:22:00,59.0,53.0,-100.00,NW,325,4.0,-999.0,78,0.00,,,-99.99,309.100006,,2013-02-28 14:22:00,
2013-02-28 09:32:00,61.0,53.0,-100.00,NW,317,5.0,-999.0,75,0.00,,,-99.99,439.299988,,2013-02-28 14:32:00,
2013-02-28 09:42:00,62.0,53.0,-100.00,NW,317,6.0,-999.0,71,0.00,,,-99.99,438.899994,,2013-02-28 14:42:00,
2013-02-28 09:52:00,62.0,53.0,-100.00,NW,317,6.0,-999.0,71,0.00,,,-99.99,438.899994,,2013-02-28 14:52:00,
2013-02-28 10:02:00,63.0,53.0,-100.00,NW,316,6.0,-999.0,69,0.00,,,-99.99,527.900024,,2013-02-28 15:02:00,
2013-02-28 10:11:00,64.0,53.0,-100.00,NW,312,6.0,-999.0,66,0.00,,,-99.99,572.900024,,2013-02-28 15:11:00,
2013-02-28 10:22:00,64.0,53.0,-100.00,NW,312,6.0,-999.0,66,0.00,,,-99.99,572.900024,,2013-02-28 15:22:00,
2013-02-28 10:32:00,65.0,52.0,-100.00,WNW,300,6.0,-999.0,62,0.00,,,-99.99,611.599976,,2013-02-28 15:32:00,
2013-02-28 10:42:00,66.0,52.0,-100.00,WNW,299,8.0,-999.0,60,0.00,,,-99.99,651.500000,,2013-02-28 15:42:00,
2013-02-28 10:52:00,66.0,52.0,-100.00,WNW,299,8.0,-999.0,60,0.00,,,-99.99,651.500000,,2013-02-28 15:52:00,
2013-02-28 11:02:00,66.0,51.0,-100.00,WNW,293,7.0,-999.0,58,0.00,,,-99.99,688.299988,,2013-02-28 16:02:00,
2013-02-28 11:12:00,67.0,51.0,-100.00,WNW,283,7.0,-999.0,57,0.00,,,-99.99,721.000000,,2013-02-28 16:12:00,
2013-02-28 11:22:00,67.0,51.0,-100.00,WNW,283,7.0,-999.0,57,0.00,,,-99.99,721.000000,,2013-02-28 16:22:00,
2013-02-28 11:32:00,67.0,51.0,-100.00,WNW,296,6.0,-999.0,56,0.00,,,-99.99,569.000000,,2013-02-28 16:32:00,
2013-02-28 11:42:00,68.0,51.0,-100.00,NW,306,5.0,-999.0,54,0.00,,,-99.99,735.000000,,2013-02-28 16:42:00,
2013-02-28 11:52:00,68.0,51.0,-100.00,NW,306,5.0,-999.0,54,0.00,,,-99.99,735.000000,,2013-02-28 16:52:00,
2013-02-28 12:02:00,69.0,51.0,-100.00,NW,310,5.0,-999.0,51,0.00,,,-99.99,826.000000,,2013-02-28 17:02:00,
2013-02-28 12:12:00,69.0,50.0,-100.00,WNW,300,6.0,-999.0,50,0.00,,,-99.99,687.700012,,2013-02-28 17:12:00,
2013-02-28 12:22:00,69.0,50.0,-100.00,WNW,300,6.0,-999.0,50,0.00,,,-99.99,687.700012,,2013-02-28 17:22:00,
2013-02-28 12:32:00,70.0,51.0,-100.00,WNW,298,7.0,-999.0,50,0.00,,,-99.99,804.000000,,2013-02-28 17:32:00,
2013-02-28 12:42:00,70.0,51.0,-100.00,West,280,7.0,-999.0,50,0.00,,,-99.99,840.000000,,2013-02-28 17:42:00,
2013-02-28 12:53:00,70.0,51.0,-100.00,West,280,7.0,-999.0,50,0.00,,,-99.99,840.000000,,2013-02-28 17:53:00,
2013-02-28 13:02:00,71.0,51.0,-100.00,West,279,7.0,-999.0,48,0.00,,,-99.99,881.000000,,2013-02-28 18:02:00,
2013-02-28 13:12:00,71.0,51.0,-100.00,West,275,8.0,-999.0,48,0.00,,,-99.99,848.000000,,2013-02-28 18:12:00,
2013-02-28 13:22:00,71.0,51.0,-100.00,West,275,8.0,-999.0,48,0.00,,,-99.99,848.000000,,2013-02-28 18:22:00,
2013-02-28 13:32:00,71.0,51.0,-100.00,WNW,286,8.0,-999.0,48,0.00,,,-99.99,832.000000,,2013-02-28 18:32:00,
2013-02-28 13:42:00,72.0,51.0,-100.00,West,279,8.0,-999.0,47,0.00,,,-99.99,761.000000,,2013-02-28 18:42:00,
2013-02-28 13:52:00,72.0,51.0,-100.00,West,279,8.0,-999.0,47,0.00,,,-99.99,761.000000,,2013-02-28 18:52:00,
2013-02-28 14:02:00,72.0,51.0,-100.00,West,278,8.0,-999.0,46,0.00,,,-99.99,760.000000,,2013-02-28 19:02:00,
2013-02-28 14:11:00,72.0,50.0,-100.00,West,279,8.0,-999.0,45,0.00,,,-99.99,651.799988,,2013-02-28 19:11:00,
2013-02-28 14:22:00,72.0,50.0,-100.00,West,279,8.0,-999.0,45,0.00,,,-99.99,651.799988,,2013-02-28 19:22:00,
2013-02-28 14:32:00,73.0,50.0,-100.00,West,280,9.0,-999.0,44,0.00,,,-99.99,753.000000,,2013-02-28 19:32:00,
2013-02-28 14:42:00,73.0,49.0,-100.00,WNW,282,9.0,-999.0,42,0.00,,,-99.99,701.000000,,2013-02-28 19:42:00,
2013-02-28 14:52:00,73.0,49.0,-100.00,WNW,282,9.0,-999.0,42,0.00,,,-99.99,701.000000,,2013-02-28 19:52:00,
2013-02-28 15:01:00,74.0,50.0,-100.00,West,278,8.0,-999.0,43,0.00,,,-99.99,734.000000,,2013-02-28 20:01:00,
2013-02-28 15:12:00,74.0,49.0,-100.00,WNW,282,9.0,-999.0,41,0.00,,,-99.99,713.000000,,2013-02-28 20:12:00,
2013-02-28 15:22:00,74.0,49.0,-100.00,WNW,282,9.0,-999.0,41,0.00,,,-99.99,713.000000,,2013-02-28 20:22:00,
2013-02-28 15:32:00,73.0,48.0,-100.00,WNW,288,11.0,-999.0,41,0.00,,,-99.99,635.400024,,2013-02-28 20:32:00,
2013-02-28 15:42:00,73.0,49.0,-100.00,West,278,10.0,-999.0,41,0.00,,,-99.99,583.099976,,2013-02-28 20:42:00,
2013-02-28 15:52:00,73.0,49.0,-100.00,West,278,10.0,-999.0,41,0.00,,,-99.99,583.099976,,2013-02-28 20:52:00,
2013-02-28 16:02:00,73.0,47.0,-100.00,WNW,285,11.0,-999.0,40,0.00,,,-99.99,535.299988,,2013-02-28 21:02:00,
2013-02-28 16:11:00,72.0,47.0,-100.00,WNW,288,10.0,-999.0,39,0.00,,,-99.99,490.200012,,2013-02-28 21:11:00,
2013-02-28 16:22:00,72.0,47.0,-100.00,WNW,288,10.0,-999.0,39,0.00,,,-99.99,490.200012,,2013-02-28 21:22:00,
2013-02-28 16:32:00,72.0,45.0,-100.00,WNW,292,10.0,-999.0,37,0.00,,,-99.99,442.000000,,2013-02-28 21:32:00,
2013-02-28 16:42:00,72.0,45.0,-100.00,WNW,289,10.0,-999.0,37,0.00,,,-99.99,393.200012,,2013-02-28 21:42:00,
2013-02-28 16:52:00,72.0,45.0,-100.00,WNW,289,10.0,-999.0,37,0.00,,,-99.99,393.200012,,2013-02-28 21:52:00,
2013-02-28 17:01:00,72.0,46.0,-100.00,WNW,290,10.0,-999.0,39,0.00,,,-99.99,339.299988,,2013-02-28 22:01:00,
2013-02-28 17:11:00,71.0,44.0,-100.00,WNW,302,11.0,-999.0,37,0.00,,,-99.99,281.700012,,2013-02-28 22:11:00,
2013-02-28 17:22:00,71.0,44.0,-100.00,WNW,302,11.0,-999.0,37,0.00,,,-99.99,281.700012,,2013-02-28 22:22:00,
2013-02-28 17:32:00,71.0,44.0,-100.00,WNW,302,10.0,-999.0,38,0.00,,,-99.99,208.800003,,2013-02-28 22:32:00,
2013-02-28 17:42:00,70.0,45.0,-100.00,WNW,301,9.0,-999.0,39,0.00,,,-99.99,179.000000,,2013-02-28 22:42:00,
2013-02-28 17:52:00,70.0,45.0,-100.00,WNW,301,9.0,-999.0,39,0.00,,,-99.99,179.000000,,2013-02-28 22:52:00,
2013-02-28 18:01:00,69.0,45.0,-100.00,WNW,300,11.0,-999.0,40,0.00,,,-99.99,116.699997,,2013-02-28 23:01:00,
2013-02-28 18:11:00,68.0,46.0,-100.00,WNW,296,7.0,-999.0,43,0.00,,,-99.99,58.299999,,2013-02-28 23:11:00,
2013-02-28 18:22:00,68.0,46.0,-100.00,WNW,296,7.0,-999.0,43,0.00,,,-99.99,58.299999,,2013-02-28 23:22:00,
2013-02-28 18:32:00,67.0,46.0,-100.00,WNW,288,8.0,-999.0,46,0.00,,,-99.99,12.500000,,2013-02-28 23:32:00,
2013-02-28 18:42:00,66.0,46.0,-100.00,WNW,290,9.0,-999.0,48,0.00,,,-99.99,4.300000,,2013-02-28 23:42:00,
2013-02-28 18:53:00,66.0,46.0,-100.00,WNW,290,9.0,-999.0,48,0.00,,,-99.99,4.300000,,2013-02-28 23:53:00,
2013-02-28 19:02:00,66.0,47.0,-100.00,WNW,293,7.0,-999.0,50,0.00,,,-99.99,0.500000,,2013-03-01 00:02:00,
2013-02-28 19:11:00,65.0,47.0,-100.00,WNW,294,5.0,-999.0,53,0.00,,,-99.99,0.000000,,2013-03-01 00:11:00,
2013-02-28 19:22:00,65.0,47.0,-100.00,WNW,294,5.0,-999.0,53,0.00,,,-99.99,0.000000,,2013-03-01 00:22:00,
2013-02-28 19:32:00,64.0,48.0,-100.00,WNW,292,5.0,-999.0,55,0.00,,,-99.99,0.000000,,2013-03-01 00:32:00,
2013-02-28 19:42:00,64.0,48.0,-100.00,WNW,292,5.0,-999.0,55,0.00,,,-99.99,0.000000,,2013-03-01 00:42:00,
2013-02-28 19:52:00,64.0,48.0,-100.00,WNW,291,7.0,-999.0,56,0.00,,,-99.99,0.000000,,2013-03-01 00:52:00,
2013-02-28 20:01:00,63.0,48.0,-100.00,WNW,291,7.0,-999.0,57,0.00,,,-99.99,0.000000,,2013-03-01 01:01:00,
2013-02-28 20:11:00,63.0,49.0,-100.00,WNW,295,7.0,-999.0,61,0.00,,,-99.99,0.000000,,2013-03-01 01:11:00,
2013-02-28 20:22:00,63.0,49.0,-100.00,WNW,295,7.0,-999.0,61,0.00,,,-99.99,0.000000,,2013-03-01 01:22:00,
2013-02-28 20:32:00,62.0,51.0,-100.00,WNW,297,7.0,-999.0,66,0.00,,,-99.99,0.000000,,2013-03-01 01:32:00,
2013-02-28 20:42:00,61.0,52.0,-100.00,WNW,298,7.0,-999.0,70,0.00,,,-99.99,0.000000,,2013-03-01 01:42:00,
2013-02-28 20:52:00,61.0,52.0,-100.00,WNW,298,7.0,-999.0,70,0.00,,,-99.99,0.000000,,2013-03-01 01:52:00,
2013-02-28 21:01:00,61.0,51.0,-100.00,WNW,295,7.0,-999.0,71,0.00,,,-99.99,0.000000,,2013-03-01 02:01:00,
2013-02-28 21:11:00,60.0,51.0,-100.00,WNW,290,5.0,-999.0,73,0.00,,,-99.99,0.000000,,2013-03-01 02:11:00,
2013-02-28 21:21:00,60.0,51.0,-100.00,WNW,290,5.0,-999.0,73,0.00,,,-99.99,0.000000,,2013-03-01 02:21:00,
2013-02-28 21:32:00,59.0,51.0,-100.00,WNW,291,5.0,-999.0,74,0.00,,,-99.99,0.000000,,2013-03-01 02:32:00,
2013-02-28 21:42:00,59.0,50.0,-100.00,WNW,293,5.0,-999.0,73,0.00,,,-99.99,0.000000,,2013-03-01 02:42:00,
2013-02-28 21:52:00,59.0,50.0,-100.00,WNW,293,5.0,-999.0,73,0.00,,,-99.99,0.000000,,2013-03-01 02:52:00,
2013-02-28 22:02:00,58.0,50.0,-100.00,WNW,293,4.0,-999.0,73,0.00,,,-99.99,0.000000,,2013-03-01 03:02:00,
2013-02-28 22:11:00,58.0,50.0,-100.00,WNW,287,4.0,-999.0,74,0.00,,,-99.99,0.000000,,2013-03-01 03:11:00,
2013-02-28 22:21:00,58.0,50.0,-100.00,WNW,287,4.0,-999.0,74,0.00,,,-99.99,0.000000,,2013-03-01 03:21:00,
2013-02-28 22:32:00,57.0,50.0,-100.00,WNW,294,5.0,-999.0,76,0.00,,,-99.99,0.000000,,2013-03-01 03:32:00,
2013-02-28 22:42:00,57.0,50.0,-100.00,WNW,291,5.0,-999.0,77,0.00,,,-99.99,0.000000,,2013-03-01 03:42:00,
2013-02-28 22:52:00,57.0,50.0,-100.00,WNW,291,5.0,-999.0,77,0.00,,,-99.99,0.000000,,2013-03-01 03:52:00,
2013-02-28 23:01:00,57.0,50.0,-100.00,WNW,285,5.0,-999.0,78,0.00,,,-99.99,0.000000,,2013-03-01 04:01:00,
2013-02-28 23:12:00,57.0,50.0,-100.00,WNW,286,6.0,-999.0,77,0.00,,,-99.99,0.000000,,2013-03-01 04:12:00,
2013-02-28 23:21:00,57.0,50.0,-100.00,WNW,286,6.0,-999.0,77,0.00,,,-99.99,0.000000,,2013-03-01 04:21:00,
2013-02-28 23:32:00,57.0,49.0,-100.00,WNW,289,7.0,-999.0,74,0.00,,,-99.99,0.000000,,2013-03-01 04:32:00,
2013-02-28 23:42:00,57.0,49.0,-100.00,WNW,291,5.0,-999.0,75,0.00,,,-99.99,0.000000,,2013-03-01 04:42:00,
2013-02-28 23:52:00,57.0,49.0,-100.00,WNW,291,5.0,-999.0,75,0.00,,,-99.99,0.000000,,2013-03-01 04:52:00,